createdAt,value
2022-10-05T00:00:03.744Z,100279.52
2022-10-05T00:01:17.064Z,100285.91
2022-10-05T00:02:21.706Z,100287.66
2022-10-05T00:03:29.523Z,100281.16
2022-10-05T00:04:32.969Z,100287.60
2022-10-05T00:05:35.301Z,100286.94
2022-10-05T00:06:39.076Z,100286.58
2022-10-05T00:07:42.538Z,100285.83
2022-10-05T00:08:45.720Z,100283.58
2022-10-05T00:09:51.974Z,100284.31
2022-10-05T00:10:55.491Z,100276.20
2022-10-05T00:12:02.057Z,100285.34
2022-10-05T00:13:07.517Z,100282.67
2022-10-05T00:14:11.740Z,100285.16
2022-10-05T00:15:16.717Z,100285.79
2022-10-05T00:16:21.564Z,100287.05
2022-10-05T00:17:26.524Z,100284.50
2022-10-05T00:18:29.866Z,100282.28
2022-10-05T00:19:35.010Z,100290.89
2022-10-05T00:20:38.628Z,100285.52
2022-10-05T00:21:42.133Z,100295.11
2022-10-05T00:22:45.535Z,100290.44
2022-10-05T00:23:51.743Z,100289.80
2022-10-05T00:24:59.752Z,100295.77
2022-10-05T00:26:13.282Z,100295.02
2022-10-05T00:27:21.177Z,100291.75
2022-10-05T00:28:29.415Z,100293.67
2022-10-05T00:29:34.789Z,100297.84
2022-10-05T00:30:38.688Z,100296.92
2022-10-05T00:31:42.265Z,100297.36
2022-10-05T00:32:46.001Z,100298.20
2022-10-05T00:33:49.935Z,100298.52
2022-10-05T00:34:53.430Z,100301.29
2022-10-05T00:36:17.836Z,100296.70
2022-10-05T00:37:21.851Z,100298.77
2022-10-05T00:38:25.078Z,100303.63
2022-10-05T00:39:29.970Z,100308.24
2022-10-05T00:40:38.224Z,100303.63
2022-10-05T00:41:47.984Z,100304.63
2022-10-05T00:42:53.343Z,100307.04
2022-10-05T00:44:08.981Z,100311.55
2022-10-05T00:45:17.836Z,100306.86
2022-10-05T00:46:23.402Z,100313.70
2022-10-05T00:47:33.722Z,100310.19
2022-10-05T00:48:51.634Z,100317.72
2022-10-05T00:50:11.743Z,100316.76
2022-10-05T00:51:31.221Z,100319.08
2022-10-05T00:52:52.710Z,100315.90
2022-10-05T00:54:08.122Z,100319.95
2022-10-05T00:55:13.924Z,100319.84
2022-10-05T00:56:37.797Z,100317.29
2022-10-05T00:57:55.297Z,100318.13
2022-10-05T00:59:06.218Z,100321.33
2022-10-05T01:00:12.962Z,100319.73
2022-10-05T01:01:24.629Z,100325.27
2022-10-05T01:02:36.854Z,100323.78
2022-10-05T01:03:59.092Z,100327.08
2022-10-05T01:05:05.442Z,100330.38
2022-10-05T01:06:11.315Z,100332.80
2022-10-05T01:07:22.548Z,100335.70
2022-10-05T01:08:39.958Z,100336.13
2022-10-05T01:10:04.758Z,100340.04
2022-10-05T01:11:27.399Z,100333.90
2022-10-05T01:12:50.950Z,100336.98
2022-10-05T01:13:55.079Z,100339.22
2022-10-05T01:15:06.522Z,100345.36
2022-10-05T01:16:14.866Z,100338.87
2022-10-05T01:17:27.527Z,100347.17
2022-10-05T01:18:33.017Z,100349.94
2022-10-05T01:19:56.460Z,100349.73
2022-10-05T01:21:00.697Z,100354.52
2022-10-05T01:22:09.425Z,100348.98
2022-10-05T01:23:27.031Z,100353.24
2022-10-05T01:24:36.071Z,100360.45
2022-10-05T01:25:44.830Z,100355.02
2022-10-05T01:27:06.280Z,100366.73
2022-10-05T01:28:10.931Z,100361.70
2022-10-05T01:29:26.766Z,100362.55
2022-10-05T01:30:38.654Z,100363.50
2022-10-05T01:31:43.949Z,100366.59
2022-10-05T01:33:00.558Z,100367.12
2022-10-05T01:34:22.875Z,100366.70
2022-10-05T01:35:32.338Z,100372.87
2022-10-05T01:36:52.540Z,100368.44
2022-10-05T01:37:57.575Z,100371.63
2022-10-05T01:39:01.964Z,100370.46
2022-10-05T01:40:11.100Z,100368.66
2022-10-05T01:41:27.877Z,100372.06
2022-10-05T01:42:39.531Z,100372.59
2022-10-05T01:43:44.914Z,100375.47
2022-10-05T01:45:01.998Z,100375.11
2022-10-05T01:46:10.254Z,100368.62
2022-10-05T01:47:14.863Z,100377.02
2022-10-05T01:48:37.058Z,100371.80
2022-10-05T01:49:48.398Z,100380.01
2022-10-05T01:51:03.005Z,100378.88
2022-10-05T01:52:23.510Z,100382.17
2022-10-05T01:53:46.484Z,100388.48
2022-10-05T01:54:52.827Z,100387.28
2022-10-05T01:55:57.343Z,100390.05
2022-10-05T01:57:11.894Z,100389.09
2022-10-05T01:58:26.139Z,100394.42
2022-10-05T01:59:38.418Z,100397.00
2022-10-05T02:00:43.662Z,100396.36
2022-10-05T02:01:58.825Z,100399.02
2022-10-05T02:03:14.951Z,100397.42
2022-10-05T02:04:42.632Z,100402.95
2022-10-05T02:06:35.274Z,100405.52
2022-10-05T02:07:45.883Z,100399.02
2022-10-05T02:08:56.491Z,100409.75
2022-10-05T02:10:06.793Z,100408.28
2022-10-05T02:11:11.960Z,100409.56
2022-10-05T02:12:17.003Z,100409.14
2022-10-05T02:13:23.366Z,100409.87
2022-10-05T02:14:30.427Z,100413.38
2022-10-05T02:15:37.528Z,100410.58
2022-10-05T02:16:46.061Z,100412.74
2022-10-05T02:17:51.381Z,100416.05
2022-10-05T02:18:55.926Z,100428.50
2022-10-05T02:20:06.960Z,100418.89
2022-10-05T02:21:10.645Z,100423.05
2022-10-05T02:22:18.981Z,100433.50
2022-10-05T02:23:23.739Z,100432.98
2022-10-05T02:24:28.800Z,100432.55
2022-10-05T02:25:33.986Z,100438.63
2022-10-05T02:26:40.312Z,100439.16
2022-10-05T02:27:58.827Z,100430.42
2022-10-05T02:29:04.555Z,100423.41
2022-10-05T02:30:12.803Z,100442.03
2022-10-05T02:31:18.604Z,100437.53
2022-10-05T02:32:26.351Z,100437.53
2022-10-05T02:33:31.006Z,100439.66
2022-10-05T02:34:41.193Z,100443.94
2022-10-05T02:35:52.210Z,100446.17
2022-10-05T02:37:13.261Z,100447.78
2022-10-05T02:38:30.387Z,100454.71
2022-10-05T02:39:40.336Z,100452.67
2022-10-05T02:40:51.141Z,100454.50
2022-10-05T02:41:57.579Z,100454.27
2022-10-05T02:43:03.281Z,100453.00
2022-10-05T02:44:09.497Z,100455.67
2022-10-05T02:45:32.870Z,100458.13
2022-10-05T02:46:41.829Z,100460.44
2022-10-05T02:48:05.020Z,100459.70
2022-10-05T02:49:10.095Z,100464.81
2022-10-05T02:50:22.505Z,100465.77
2022-10-05T02:51:27.873Z,100468.32
2022-10-05T02:52:33.039Z,100473.03
2022-10-05T02:53:37.084Z,100468.32
2022-10-05T02:54:54.786Z,100473.88
2022-10-05T02:56:01.843Z,100469.08
2022-10-05T02:57:12.965Z,100467.91
2022-10-05T02:58:18.252Z,100473.75
2022-10-05T02:59:24.684Z,100470.89
2022-10-05T03:00:30.487Z,100472.70
2022-10-05T03:01:35.695Z,100468.43
2022-10-05T03:02:43.343Z,100476.96
2022-10-05T03:03:55.553Z,100468.98
2022-10-05T03:05:05.082Z,100471.09
2022-10-05T03:06:20.326Z,100469.28
2022-10-05T03:07:37.892Z,100473.34
2022-10-05T03:08:49.437Z,100468.53
2022-10-05T03:10:01.242Z,100471.30
2022-10-05T03:11:23.918Z,100476.55
2022-10-05T03:12:41.419Z,100472.80
2022-10-05T03:13:49.093Z,100479.72
2022-10-05T03:14:53.965Z,100469.62
2022-10-05T03:15:59.168Z,100475.25
2022-10-05T03:17:15.794Z,100472.39
2022-10-05T03:18:36.283Z,100470.68
2022-10-05T03:19:58.841Z,100468.02
2022-10-05T03:21:13.984Z,100477.27
2022-10-05T03:22:37.196Z,100474.47
2022-10-05T03:23:43.917Z,100478.08
2022-10-05T03:24:55.068Z,100483.91
2022-10-05T03:26:03.511Z,100486.06
2022-10-05T03:27:07.719Z,100482.34
2022-10-05T03:28:17.128Z,100483.64
2022-10-05T03:29:31.579Z,100487.11
2022-10-05T03:30:42.889Z,100486.55
2022-10-05T03:31:48.169Z,100492.39
2022-10-05T03:32:56.054Z,100501.42
2022-10-05T03:34:13.315Z,100498.47
2022-10-05T03:35:29.805Z,100501.32
2022-10-05T03:36:36.823Z,100501.32
2022-10-05T03:37:48.095Z,100507.69
2022-10-05T03:38:56.403Z,100505.27
2022-10-05T03:40:09.936Z,100502.41
2022-10-05T03:41:18.350Z,100509.92
2022-10-05T03:42:36.165Z,100511.23
2022-10-05T03:43:47.806Z,100506.38
2022-10-05T03:44:53.097Z,100506.97
2022-10-05T03:46:01.445Z,100512.74
2022-10-05T03:47:25.906Z,100511.69
2022-10-05T03:48:34.402Z,100513.17
2022-10-05T03:49:42.943Z,100509.62
2022-10-05T03:50:55.138Z,100508.67
2022-10-05T03:53:23.935Z,100507.82
2022-10-05T03:54:34.044Z,100502.70
2022-10-05T03:55:39.519Z,100511.23
2022-10-05T03:56:44.716Z,100509.92
2022-10-05T03:57:50.615Z,100511.59
2022-10-05T03:58:56.209Z,100506.45
2022-10-05T04:00:14.719Z,100515.14
2022-10-05T04:01:22.081Z,100512.38
2022-10-05T04:02:31.809Z,100517.21
2022-10-05T04:03:37.038Z,100521.31
2022-10-05T04:04:41.867Z,100527.81
2022-10-05T04:05:57.558Z,100520.36
2022-10-05T04:07:03.157Z,100523.38
2022-10-05T04:08:14.374Z,100533.49
2022-10-05T04:09:19.630Z,100527.32
2022-10-05T04:10:24.214Z,100528.27
2022-10-05T04:11:32.303Z,100522.00
2022-10-05T04:12:38.526Z,100532.24
2022-10-05T04:13:47.043Z,100526.92
2022-10-05T04:14:51.707Z,100529.38
2022-10-05T04:15:56.076Z,100527.72
2022-10-05T04:17:00.598Z,100532.59
2022-10-05T04:18:05.348Z,100529.84
2022-10-05T04:19:12.923Z,100535.61
2022-10-05T04:20:35.438Z,100530.28
2022-10-05T04:21:41.906Z,100534.31
2022-10-05T04:22:48.136Z,100537.83
2022-10-05T04:23:55.643Z,100535.17
2022-10-05T04:25:08.941Z,100536.67
2022-10-05T04:26:14.623Z,100534.97
2022-10-05T04:27:21.795Z,100540.84
2022-10-05T04:28:32.406Z,100536.48
2022-10-05T04:29:43.703Z,100531.66
2022-10-05T04:30:48.344Z,100537.97
2022-10-05T04:31:53.281Z,100538.06
2022-10-05T04:32:58.916Z,100538.06
2022-10-05T04:34:21.437Z,100536.36
2022-10-05T04:35:42.055Z,100541.58
2022-10-05T04:36:48.580Z,100553.33
2022-10-05T04:38:01.493Z,100550.21
2022-10-05T04:39:13.992Z,100543.79
2022-10-05T04:40:28.778Z,100546.06
2022-10-05T04:41:49.850Z,100550.64
2022-10-05T04:42:59.896Z,100549.04
2022-10-05T04:44:20.643Z,100548.19
2022-10-05T04:45:27.086Z,100553.09
2022-10-05T04:46:37.430Z,100547.36
2022-10-05T04:47:43.530Z,100555.66
2022-10-05T04:48:54.416Z,100547.02
2022-10-05T04:50:04.698Z,100550.90
2022-10-05T04:51:26.535Z,100544.86
2022-10-05T04:53:52.617Z,100556.82
2022-10-05T04:55:06.452Z,100555.01
2022-10-05T04:56:12.161Z,100557.55
2022-10-05T04:57:18.694Z,100567.27
2022-10-05T04:58:30.858Z,100565.77
2022-10-05T04:59:48.997Z,100574.20
2022-10-05T05:01:11.739Z,100578.56
2022-10-05T05:02:27.370Z,100580.69
2022-10-05T05:03:33.039Z,100577.81
2022-10-05T05:04:53.779Z,100577.17
2022-10-05T05:06:16.516Z,100581.86
2022-10-05T05:07:06.117Z,100586.55
2022-10-05T05:08:18.458Z,100593.89
2022-10-05T05:09:25.648Z,100589.87
2022-10-05T05:10:45.902Z,100595.08
2022-10-05T05:12:11.311Z,100598.15
2022-10-05T05:13:19.720Z,100606.50
2022-10-05T05:14:30.118Z,100610.31
2022-10-05T05:15:51.431Z,100612.98
2022-10-05T05:17:12.228Z,100609.47
2022-10-05T05:18:12.812Z,100613.42
2022-10-05T05:19:37.312Z,100610.84
2022-10-05T05:20:49.305Z,100614.89
2022-10-05T05:22:00.615Z,100622.02
2022-10-05T05:23:07.153Z,100619.34
2022-10-05T05:24:27.993Z,100623.09
2022-10-05T05:25:37.462Z,100623.48
2022-10-05T05:26:46.333Z,100628.82
2022-10-05T05:27:55.907Z,100626.90
2022-10-05T05:29:07.603Z,100628.92
2022-10-05T05:30:21.866Z,100633.86
2022-10-05T05:31:27.920Z,100629.16
2022-10-05T05:32:37.576Z,100630.63
2022-10-05T05:33:52.947Z,100637.89
2022-10-05T05:35:00.944Z,100635.11
2022-10-05T05:36:20.737Z,100640.66
2022-10-05T05:37:34.974Z,100636.81
2022-10-05T05:38:43.106Z,100637.67
2022-10-05T05:39:59.164Z,100639.16
2022-10-05T05:41:03.392Z,100635.33
2022-10-05T05:42:16.235Z,100648.98
2022-10-05T05:43:25.431Z,100644.81
2022-10-05T05:44:29.678Z,100651.23
2022-10-05T05:45:43.933Z,100650.33
2022-10-05T05:47:06.868Z,100648.42
2022-10-05T05:48:26.495Z,100646.28
2022-10-05T05:49:40.821Z,100648.83
2022-10-05T05:50:51.962Z,100649.84
2022-10-05T05:51:56.192Z,100646.53
2022-10-05T05:53:02.395Z,100645.24
2022-10-05T05:54:24.309Z,100650.36
2022-10-05T05:55:30.515Z,100651.01
2022-10-05T05:56:37.677Z,100650.44
2022-10-05T05:57:42.330Z,100649.73
2022-10-05T06:24:03.269Z,100696.09
2022-10-05T06:25:17.009Z,100704.79
2022-10-05T06:26:33.780Z,100698.16
2022-10-05T06:27:38.120Z,100700.45
2022-10-05T06:28:42.914Z,100706.86
2022-10-05T06:29:51.926Z,100706.88
2022-10-05T06:31:03.376Z,100705.91
2022-10-05T06:32:12.331Z,100716.25
2022-10-05T06:33:26.677Z,100704.94
2022-10-05T06:34:35.651Z,100705.61
2022-10-05T06:36:00.008Z,100710.48
2022-10-05T06:37:07.056Z,100702.97
2022-10-05T06:38:28.326Z,100705.13
2022-10-05T06:39:33.920Z,100722.73
2022-10-05T06:40:39.816Z,100722.39
2022-10-05T06:42:06.821Z,100718.47
2022-10-05T06:44:36.502Z,100719.38
2022-10-05T06:46:13.586Z,100705.79
2022-10-05T06:47:32.439Z,100708.16
2022-10-05T06:48:41.130Z,100719.15
2022-10-05T06:49:58.969Z,100718.81
2022-10-05T06:51:27.202Z,100719.02
2022-10-05T06:52:46.169Z,100724.16
2022-10-05T06:53:50.610Z,100720.80
2022-10-05T06:55:14.282Z,100715.27
2022-10-05T06:56:20.268Z,100736.66
2022-10-05T06:57:43.312Z,100716.48
2022-10-05T06:58:53.084Z,100724.48
2022-10-05T07:00:10.271Z,100719.96
2022-10-05T07:01:16.986Z,100725.95
2022-10-05T07:02:23.663Z,100728.28
2022-10-05T07:03:46.075Z,100739.85
2022-10-05T07:04:59.495Z,100748.31
2022-10-05T07:06:04.738Z,100744.78
2022-10-05T07:07:11.176Z,100742.64
2022-10-05T07:08:28.582Z,100744.59
2022-10-05T07:09:33.698Z,100743.98
2022-10-05T07:10:45.335Z,100741.37
2022-10-05T07:11:55.812Z,100741.07
2022-10-05T07:13:12.983Z,100740.04
2022-10-05T07:14:20.076Z,100747.23
2022-10-05T07:15:28.063Z,100741.19
2022-10-05T07:16:33.624Z,100742.64
2022-10-05T07:17:42.175Z,100746.59
2022-10-05T07:18:53.111Z,100748.00
2022-10-05T07:19:58.597Z,100755.95
2022-10-05T07:21:06.691Z,100776.14
2022-10-05T07:22:14.695Z,100780.76
2022-10-05T07:23:39.091Z,100786.59
2022-10-05T07:24:54.084Z,100784.61
2022-10-05T07:26:02.172Z,100776.12
2022-10-05T07:27:11.953Z,100776.88
2022-10-05T07:28:23.057Z,100768.32
2022-10-05T07:29:30.950Z,100783.38
2022-10-05T07:32:14.846Z,100824.96
2022-10-05T07:33:25.048Z,100826.75
2022-10-05T07:34:31.465Z,100831.58
2022-10-05T07:36:01.513Z,100837.20
2022-10-05T07:37:25.071Z,100829.02
2022-10-05T07:38:38.049Z,100826.90
2022-10-05T07:39:59.490Z,100834.25
2022-10-05T07:40:50.734Z,100835.20
2022-10-05T07:41:55.490Z,100833.02
2022-10-05T07:43:01.071Z,100839.91
2022-10-05T07:44:14.740Z,100839.69
2022-10-05T07:45:21.974Z,100830.53
2022-10-05T07:46:28.299Z,100834.13
2022-10-05T07:47:32.847Z,100826.96
2022-10-05T07:48:41.887Z,100840.34
2022-10-05T07:49:51.085Z,100850.27
2022-10-05T07:50:58.821Z,100852.94
2022-10-05T07:52:05.668Z,100859.29
2022-10-05T07:53:14.967Z,100870.22
2022-10-05T07:54:26.372Z,100859.83
2022-10-05T07:55:34.358Z,100851.30
2022-10-05T07:56:44.543Z,100841.45
2022-10-05T07:58:04.137Z,100832.45
2022-10-05T07:59:10.551Z,100842.56
2022-10-05T08:00:17.215Z,100840.08
2022-10-05T08:01:24.761Z,100833.71
2022-10-05T08:02:41.551Z,100834.58
2022-10-05T08:03:59.786Z,100848.33
2022-10-05T08:05:08.104Z,100833.09
2022-10-05T08:06:13.700Z,100823.41
2022-10-05T08:07:17.661Z,100820.16
2022-10-05T08:08:29.904Z,100820.20
2022-10-05T08:09:36.739Z,100820.25
2022-10-05T08:10:43.073Z,100814.72
2022-10-05T08:11:49.401Z,100809.33
2022-10-05T08:13:14.211Z,100815.41
2022-10-05T08:14:25.549Z,100813.41
2022-10-05T08:15:34.668Z,100824.34
2022-10-05T08:16:39.422Z,100815.97
2022-10-05T08:17:52.513Z,100833.30
2022-10-05T08:18:57.229Z,100832.47
2022-10-05T08:20:18.586Z,100823.12
2022-10-05T08:21:27.409Z,100818.52
2022-10-05T08:22:39.799Z,100824.59
2022-10-05T08:23:51.547Z,100816.56
2022-10-05T08:24:56.839Z,100814.91
2022-10-05T08:26:11.520Z,100809.65
2022-10-05T08:28:42.333Z,100809.95
2022-10-05T08:29:56.508Z,100822.20
2022-10-05T08:31:00.985Z,100820.56
2022-10-05T08:32:05.289Z,100818.17
2022-10-05T08:33:10.568Z,100815.62
2022-10-05T08:34:18.148Z,100821.70
2022-10-05T08:35:34.594Z,100817.48
2022-10-05T08:36:53.633Z,100823.62
2022-10-05T08:37:56.334Z,100818.86
2022-10-05T08:39:02.240Z,100820.16
2022-10-05T08:40:07.147Z,100824.34
2022-10-05T08:41:27.944Z,100817.72
2022-10-05T08:42:37.828Z,100821.30
2022-10-05T08:43:57.310Z,100815.95
2022-10-05T08:45:01.575Z,100821.38
2022-10-05T08:46:25.401Z,100828.25
2022-10-05T08:47:36.651Z,100825.12
2022-10-05T08:48:44.695Z,100820.45
2022-10-05T08:49:50.927Z,100824.33
2022-10-05T08:50:57.931Z,100825.34
2022-10-05T08:52:24.196Z,100819.87
2022-10-05T08:53:28.756Z,100824.70
2022-10-05T08:54:45.202Z,100838.17
2022-10-05T08:55:55.958Z,100832.39
2022-10-05T08:57:18.847Z,100831.85
2022-10-05T08:58:34.054Z,100831.00
2022-10-05T08:59:38.711Z,100836.69
2022-10-05T09:00:50.304Z,100841.59
2022-10-05T09:02:00.549Z,100834.89
2022-10-05T09:03:21.296Z,100844.52
2022-10-05T09:04:35.361Z,100835.67
2022-10-05T09:06:01.961Z,100837.45
2022-10-05T09:07:10.770Z,100834.99
2022-10-05T09:08:19.910Z,100840.10
2022-10-05T09:09:27.377Z,100845.85
2022-10-05T09:10:41.755Z,100834.04
2022-10-05T09:11:51.632Z,100839.17
2022-10-05T09:13:16.077Z,100846.58
2022-10-05T09:14:30.384Z,100832.30
2022-10-05T09:15:37.160Z,100837.75
2022-10-05T09:16:41.686Z,100841.00
2022-10-05T09:17:47.176Z,100845.88
2022-10-05T09:19:00.401Z,100846.41
2022-10-05T09:20:04.411Z,100846.92
2022-10-05T09:21:26.507Z,100849.61
2022-10-05T09:22:34.445Z,100853.72
2022-10-05T09:23:39.795Z,100855.58
2022-10-05T09:24:59.491Z,100861.31
2022-10-05T09:26:07.486Z,100858.03
2022-10-05T09:27:14.977Z,100852.57
2022-10-05T09:28:22.385Z,100843.06
2022-10-05T09:29:30.328Z,100846.34
2022-10-05T09:30:42.459Z,100840.71
2022-10-05T09:31:51.322Z,100846.37
2022-10-05T09:33:14.265Z,100840.28
2022-10-05T09:34:27.066Z,100841.13
2022-10-05T09:35:31.604Z,100842.34
2022-10-05T09:36:42.158Z,100842.08
2022-10-05T09:37:59.619Z,100839.88
2022-10-05T09:39:07.928Z,100849.38
2022-10-05T09:40:30.862Z,100837.46
2022-10-05T09:41:52.646Z,100828.90
2022-10-05T09:43:01.164Z,100834.42
2022-10-05T09:44:22.138Z,100840.64
2022-10-05T09:45:27.381Z,100842.14
2022-10-05T09:46:31.567Z,100841.17
2022-10-05T09:47:54.863Z,100843.98
2022-10-05T09:49:14.297Z,100847.45
2022-10-05T09:50:19.421Z,100854.16
2022-10-05T09:51:44.031Z,100853.76
2022-10-05T09:53:06.035Z,100848.45
2022-10-05T09:54:13.395Z,100852.16
2022-10-05T09:55:30.897Z,100858.09
2022-10-05T09:56:43.073Z,100862.98
2022-10-05T09:58:08.161Z,100865.83
2022-10-05T09:59:28.940Z,100861.69
2022-10-05T10:00:37.559Z,100856.08
2022-10-05T10:01:50.846Z,100854.59
2022-10-05T10:03:01.800Z,100859.52
2022-10-05T10:04:16.274Z,100860.42
2022-10-05T10:05:26.674Z,100856.34
2022-10-05T10:06:37.386Z,100857.18
2022-10-05T10:07:57.708Z,100861.33
2022-10-05T10:09:03.413Z,100857.28
2022-10-05T10:10:10.681Z,100864.09
2022-10-05T10:11:18.655Z,100866.63
2022-10-05T10:12:41.730Z,100865.34
2022-10-05T10:13:47.231Z,100873.84
2022-10-05T10:15:08.863Z,100872.92
2022-10-05T10:16:20.598Z,100872.27
2022-10-05T10:17:29.776Z,100882.28
2022-10-05T10:18:51.871Z,100871.39
2022-10-05T10:19:57.256Z,100867.61
2022-10-05T10:21:03.316Z,100865.27
2022-10-05T10:22:24.215Z,100869.17
2022-10-05T10:23:35.800Z,100880.39
2022-10-05T10:24:39.990Z,100872.22
2022-10-05T10:25:47.995Z,100866.00
2022-10-05T10:27:09.768Z,100864.19
2022-10-05T10:28:36.314Z,100869.57
2022-10-05T10:29:40.945Z,100867.73
2022-10-05T10:30:54.977Z,100869.41
2022-10-05T10:32:05.462Z,100869.44
2022-10-05T10:33:16.219Z,100877.01
2022-10-05T10:34:31.379Z,100871.23
2022-10-05T10:35:39.940Z,100873.08
2022-10-05T10:36:53.375Z,100876.94
2022-10-05T10:38:01.099Z,100873.45
2022-10-05T10:39:15.280Z,100871.55
2022-10-05T10:40:23.998Z,100862.33
2022-10-05T10:41:31.787Z,100873.56
2022-10-05T10:42:51.584Z,100872.31
2022-10-05T10:44:06.474Z,100869.53
2022-10-05T10:45:17.919Z,100872.94
2022-10-05T10:46:23.325Z,100876.45
2022-10-05T10:47:37.576Z,100870.84
2022-10-05T10:48:41.814Z,100878.29
2022-10-05T10:49:55.448Z,100867.70
2022-10-05T10:51:08.413Z,100875.07
2022-10-05T10:52:32.404Z,100872.75
2022-10-05T10:55:07.016Z,100870.23
2022-10-05T10:56:12.945Z,100866.75
2022-10-05T10:57:24.300Z,100862.98
2022-10-05T10:58:35.921Z,100866.53
2022-10-05T10:59:57.492Z,100868.16
2022-10-05T11:01:19.433Z,100871.86
2022-10-05T11:02:24.829Z,100869.14
2022-10-05T11:03:42.475Z,100871.03
2022-10-05T11:04:51.775Z,100864.07
2022-10-05T11:06:13.433Z,100858.17
2022-10-05T11:07:31.590Z,100864.20
2022-10-05T11:08:39.831Z,100863.83
2022-10-05T11:10:07.262Z,100864.14
2022-10-05T11:11:11.914Z,100860.98
2022-10-05T11:12:34.738Z,100864.65
2022-10-05T11:13:41.070Z,100859.77
2022-10-05T11:14:50.319Z,100851.77
2022-10-05T11:17:21.448Z,100848.49
2022-10-05T11:18:26.845Z,100842.09
2022-10-05T11:20:04.861Z,100840.64
2022-10-05T11:21:11.977Z,100840.00
2022-10-05T11:22:25.707Z,100845.16
2022-10-05T11:23:39.058Z,100843.73
2022-10-05T11:24:47.654Z,100849.86
2022-10-05T11:25:58.161Z,100847.98
2022-10-05T11:27:12.624Z,100846.80
2022-10-05T11:28:34.556Z,100852.70
2022-10-05T11:29:40.846Z,100848.14
2022-10-05T11:30:55.496Z,100854.27
2022-10-05T11:32:17.099Z,100859.98
2022-10-05T11:33:28.447Z,100865.02
2022-10-05T11:34:46.422Z,100865.60
2022-10-05T11:36:03.486Z,100856.08
2022-10-05T11:37:12.739Z,100859.48
2022-10-05T11:38:36.884Z,100871.02
2022-10-05T11:39:58.459Z,100866.39
2022-10-05T11:41:09.288Z,100858.79
2022-10-05T11:42:33.350Z,100858.42
2022-10-05T11:43:51.684Z,100867.75
2022-10-05T11:45:07.105Z,100855.18
2022-10-05T11:46:12.469Z,100860.04
2022-10-05T11:47:26.608Z,100848.27
2022-10-05T11:48:42.734Z,100850.08
2022-10-05T11:49:59.866Z,100851.52
2022-10-05T11:51:14.171Z,100850.84
2022-10-05T11:52:22.657Z,100859.81
2022-10-05T11:53:32.089Z,100871.41
2022-10-05T11:54:58.502Z,100861.27
2022-10-05T11:55:44.024Z,100863.95
2022-10-05T11:56:50.888Z,100859.83
2022-10-05T11:57:57.615Z,100852.32
2022-10-05T11:59:03.012Z,100855.26
2022-10-05T12:00:13.950Z,100860.00
2022-10-05T12:01:27.797Z,100858.77
2022-10-05T12:02:37.809Z,100861.52
2022-10-05T12:04:00.183Z,100855.89
2022-10-05T12:05:24.147Z,100860.18
2022-10-05T12:06:30.783Z,100858.17
2022-10-05T12:07:45.465Z,100857.60
2022-10-05T12:08:57.349Z,100860.28
2022-10-05T12:10:14.724Z,100864.67
2022-10-05T12:11:35.781Z,100866.69
2022-10-05T12:12:41.081Z,100866.69
2022-10-05T12:13:46.226Z,100877.98
2022-10-05T12:14:53.484Z,100876.53
2022-10-05T12:16:07.820Z,100870.23
2022-10-05T12:17:20.976Z,100863.42
2022-10-05T12:18:35.595Z,100869.28
2022-10-05T12:19:42.703Z,100868.33
2022-10-05T12:20:57.490Z,100877.92
2022-10-05T12:22:11.345Z,100880.00
2022-10-05T12:23:31.458Z,100890.84
2022-10-05T12:24:39.245Z,100886.94
2022-10-05T12:25:47.514Z,100889.06
2022-10-05T12:27:01.818Z,100889.09
2022-10-05T12:28:09.676Z,100892.90
2022-10-05T12:29:24.706Z,100882.68
2022-10-05T12:30:31.138Z,100895.63
2022-10-05T12:31:38.226Z,100890.84
2022-10-05T12:32:48.065Z,100885.73
2022-10-05T12:33:54.093Z,100889.38
2022-10-05T12:35:01.995Z,100893.41
2022-10-05T12:36:10.906Z,100889.27
2022-10-05T12:37:19.622Z,100901.61
2022-10-05T12:38:28.979Z,100903.80
2022-10-05T12:41:09.978Z,100902.70
2022-10-05T12:42:27.237Z,100906.38
2022-10-05T12:43:41.260Z,100909.52
2022-10-05T12:44:49.076Z,100912.81
2022-10-05T12:46:12.031Z,100899.13
2022-10-05T12:47:35.256Z,100904.98
2022-10-05T12:48:43.435Z,100916.56
2022-10-05T12:49:54.382Z,100914.61
2022-10-05T12:51:02.588Z,100913.19
2022-10-05T12:52:07.334Z,100919.36
2022-10-05T12:53:29.221Z,100923.52
2022-10-05T12:54:45.928Z,100911.44
2022-10-05T12:55:54.301Z,100914.92
2022-10-05T12:57:01.314Z,100914.98
2022-10-05T12:58:07.678Z,100912.17
2022-10-05T12:59:23.522Z,100920.34
2022-10-05T13:00:32.345Z,100915.83
2022-10-05T13:01:38.790Z,100923.51
2022-10-05T13:02:42.896Z,100916.32
2022-10-05T13:03:48.613Z,100908.55
2022-10-05T13:04:53.364Z,100903.63
2022-10-05T13:06:05.862Z,100907.31
2022-10-05T13:07:13.371Z,100905.18
2022-10-05T13:08:19.886Z,100921.44
2022-10-05T13:09:26.961Z,100919.88
2022-10-05T13:10:34.911Z,100924.88
2022-10-05T13:11:38.937Z,100920.12
2022-10-05T13:12:56.229Z,100916.83
2022-10-05T13:14:03.077Z,100919.41
2022-10-05T13:15:10.980Z,100921.97
2022-10-05T13:16:17.450Z,100922.84
2022-10-05T13:17:28.015Z,100920.75
2022-10-05T13:18:34.968Z,100923.08
2022-10-05T13:19:45.042Z,100920.01
2022-10-05T13:20:49.441Z,100924.29
2022-10-05T13:21:57.701Z,100923.55
2022-10-05T13:23:03.191Z,100920.02
2022-10-05T13:24:19.019Z,100927.70
2022-10-05T13:25:27.529Z,100920.53
2022-10-05T13:26:34.962Z,100924.66
2022-10-05T13:27:54.189Z,100924.41
2022-10-05T13:29:02.893Z,100927.95
2022-10-05T13:30:08.856Z,100923.06
2022-10-05T13:31:23.861Z,100919.91
2022-10-05T13:32:34.726Z,100917.35
2022-10-05T13:33:55.268Z,100916.99
2022-10-05T13:35:16.946Z,100924.29
2022-10-05T13:36:27.762Z,100919.41
2022-10-05T13:37:34.504Z,100920.14
2022-10-05T13:38:39.674Z,100921.98
2022-10-05T13:39:52.797Z,100921.84
2022-10-05T13:41:16.201Z,100920.16
2022-10-05T13:42:21.535Z,100918.56
2022-10-05T13:43:43.623Z,100928.66
2022-10-05T13:44:49.987Z,100916.97
2022-10-05T13:45:57.109Z,100910.14
2022-10-05T13:47:09.110Z,100915.52
2022-10-05T13:48:31.176Z,100913.57
2022-10-05T13:49:40.333Z,100914.65
2022-10-05T13:50:45.705Z,100915.28
2022-10-05T13:52:09.343Z,100915.52
2022-10-05T13:54:35.274Z,100909.56
2022-10-05T13:55:40.463Z,100910.77
2022-10-05T13:56:46.509Z,100912.95
2022-10-05T13:58:05.350Z,100913.08
2022-10-05T13:59:12.491Z,100909.66
2022-10-05T14:00:26.268Z,100921.23
2022-10-05T14:01:37.456Z,100922.59
2022-10-05T14:02:42.769Z,100913.81
2022-10-05T14:04:04.013Z,100915.41
2022-10-05T14:05:25.003Z,100915.39
2022-10-05T14:06:29.609Z,100913.44
2022-10-05T14:07:34.567Z,100915.02
2022-10-05T14:08:49.979Z,100918.09
2022-10-05T14:09:53.523Z,100908.84
2022-10-05T14:10:57.732Z,100914.78
2022-10-05T14:12:07.169Z,100914.79